sensor_id;sensor_type;location;lat;lon;timestamp;temperature;humidity
51305;HTU21D;37392;50.964;6.952;2023-07-28T00:02:04;16.98;8.40
51305;HTU21D;37392;50.964;6.952;2023-07-28T00:04:30;16.94;8.38
51305;HTU21D;37392;50.964;6.952;2023-07-28T00:06:55;16.98;8.41
51305;HTU21D;37392;50.964;6.952;2023-07-28T00:09:21;16.96;8.42
51305;HTU21D;37392;50.964;6.952;2023-07-28T00:11:48;16.98;8.43
51305;HTU21D;37392;50.964;6.952;2023-07-28T00:14:14;16.98;8.49
51305;HTU21D;37392;50.964;6.952;2023-07-28T00:16:40;17.00;8.48
51305;HTU21D;37392;50.964;6.952;2023-07-28T00:19:06;17.00;8.45
51305;HTU21D;37392;50.964;6.952;2023-07-28T00:21:31;16.98;8.40
51305;HTU21D;37392;50.964;6.952;2023-07-28T00:23:57;16.96;8.32
51305;HTU21D;37392;50.964;6.952;2023-07-28T00:26:22;16.99;8.42
51305;HTU21D;37392;50.964;6.952;2023-07-28T00:28:48;16.99;8.38
51305;HTU21D;37392;50.964;6.952;2023-07-28T00:31:13;17.00;8.36
51305;HTU21D;37392;50.964;6.952;2023-07-28T00:33:39;17.02;8.35
51305;HTU21D;37392;50.964;6.952;2023-07-28T00:36:04;17.00;8.35
51305;HTU21D;37392;50.964;6.952;2023-07-28T00:38:30;17.02;8.43
51305;HTU21D;37392;50.964;6.952;2023-07-28T00:40:55;17.04;8.46
51305;HTU21D;37392;50.964;6.952;2023-07-28T00:43:21;17.06;8.48
51305;HTU21D;37392;50.964;6.952;2023-07-28T00:45:46;17.05;8.48
51305;HTU21D;37392;50.964;6.952;2023-07-28T00:48:13;17.07;8.51
51305;HTU21D;37392;50.964;6.952;2023-07-28T00:50:41;17.06;8.44
51305;HTU21D;37392;50.964;6.952;2023-07-28T00:53:07;17.08;8.43
51305;HTU21D;37392;50.964;6.952;2023-07-28T00:55:33;17.11;8.40
51305;HTU21D;37392;50.964;6.952;2023-07-28T00:57:59;17.07;8.40
51305;HTU21D;37392;50.964;6.952;2023-07-28T01:00:24;17.10;8.29
51305;HTU21D;37392;50.964;6.952;2023-07-28T01:02:50;17.11;8.34
51305;HTU21D;37392;50.964;6.952;2023-07-28T01:05:16;17.10;8.16
51305;HTU21D;37392;50.964;6.952;2023-07-28T01:07:54;17.11;8.26
51305;HTU21D;37392;50.964;6.952;2023-07-28T01:10:30;17.13;8.11
51305;HTU21D;37392;50.964;6.952;2023-07-28T01:12:57;17.15;8.03
51305;HTU21D;37392;50.964;6.952;2023-07-28T01:15:23;17.18;7.91
51305;HTU21D;37392;50.964;6.952;2023-07-28T01:17:49;17.19;7.96
51305;HTU21D;37392;50.964;6.952;2023-07-28T01:20:15;17.17;7.82
51305;HTU21D;37392;50.964;6.952;2023-07-28T01:24:01;17.18;7.92
51305;HTU21D;37392;50.964;6.952;2023-07-28T01:26:09;17.19;7.88
51305;HTU21D;37392;50.964;6.952;2023-07-28T01:28:36;17.21;7.89
51305;HTU21D;37392;50.964;6.952;2023-07-28T01:31:04;17.19;7.87
51305;HTU21D;37392;50.964;6.952;2023-07-28T01:33:31;17.21;7.92
51305;HTU21D;37392;50.964;6.952;2023-07-28T01:35:57;17.23;8.06
51305;HTU21D;37392;50.964;6.952;2023-07-28T01:38:27;17.22;8.07
51305;HTU21D;37392;50.964;6.952;2023-07-28T01:40:53;17.24;8.12
51305;HTU21D;37392;50.964;6.952;2023-07-28T01:43:19;17.25;8.20
51305;HTU21D;37392;50.964;6.952;2023-07-28T01:45:45;17.28;8.10
51305;HTU21D;37392;50.964;6.952;2023-07-28T01:48:10;17.25;8.10
51305;HTU21D;37392;50.964;6.952;2023-07-28T01:50:37;17.26;8.01
51305;HTU21D;37392;50.964;6.952;2023-07-28T01:53:04;17.23;7.97
51305;HTU21D;37392;50.964;6.952;2023-07-28T01:55:30;17.23;7.92
51305;HTU21D;37392;50.964;6.952;2023-07-28T01:57:58;17.20;8.02
51305;HTU21D;37392;50.964;6.952;2023-07-28T02:00:25;17.19;8.08
51305;HTU21D;37392;50.964;6.952;2023-07-28T02:02:51;17.19;8.05
51305;HTU21D;37392;50.964;6.952;2023-07-28T02:05:17;17.16;8.11
51305;HTU21D;37392;50.964;6.952;2023-07-28T02:07:43;17.13;8.20
51305;HTU21D;37392;50.964;6.952;2023-07-28T02:10:09;17.13;8.34
51305;HTU21D;37392;50.964;6.952;2023-07-28T02:12:36;17.14;8.43
51305;HTU21D;37392;50.964;6.952;2023-07-28T02:15:03;17.15;8.51
51305;HTU21D;37392;50.964;6.952;2023-07-28T02:17:29;17.13;8.56
51305;HTU21D;37392;50.964;6.952;2023-07-28T02:19:55;17.11;8.56
51305;HTU21D;37392;50.964;6.952;2023-07-28T02:22:21;17.15;8.63
51305;HTU21D;37392;50.964;6.952;2023-07-28T02:24:46;17.14;8.66
51305;HTU21D;37392;50.964;6.952;2023-07-28T02:27:12;17.11;8.68
51305;HTU21D;37392;50.964;6.952;2023-07-28T02:29:37;17.10;8.72
51305;HTU21D;37392;50.964;6.952;2023-07-28T02:32:04;17.15;8.81
51305;HTU21D;37392;50.964;6.952;2023-07-28T02:34:29;17.13;8.80
51305;HTU21D;37392;50.964;6.952;2023-07-28T02:36:55;17.15;8.83
51305;HTU21D;37392;50.964;6.952;2023-07-28T02:39:20;17.14;8.91
51305;HTU21D;37392;50.964;6.952;2023-07-28T02:41:46;17.14;8.93
51305;HTU21D;37392;50.964;6.952;2023-07-28T02:44:12;17.14;8.92
51305;HTU21D;37392;50.964;6.952;2023-07-28T02:46:37;17.11;8.95
51305;HTU21D;37392;50.964;6.952;2023-07-28T02:49:03;17.13;9.01
51305;HTU21D;37392;50.964;6.952;2023-07-28T02:51:29;17.11;9.05
51305;HTU21D;37392;50.964;6.952;2023-07-28T02:53:55;17.14;9.07
51305;HTU21D;37392;50.964;6.952;2023-07-28T02:56:21;17.14;9.11
51305;HTU21D;37392;50.964;6.952;2023-07-28T02:58:48;17.13;9.12
51305;HTU21D;37392;50.964;6.952;2023-07-28T03:01:14;17.16;9.16
51305;HTU21D;37392;50.964;6.952;2023-07-28T03:03:39;17.16;9.11
51305;HTU21D;37392;50.964;6.952;2023-07-28T03:06:05;17.20;9.10
51305;HTU21D;37392;50.964;6.952;2023-07-28T03:08:30;17.19;9.21
51305;HTU21D;37392;50.964;6.952;2023-07-28T03:10:59;17.18;9.27
51305;HTU21D;37392;50.964;6.952;2023-07-28T03:13:28;17.18;9.23
51305;HTU21D;37392;50.964;6.952;2023-07-28T03:15:54;17.20;9.30
51305;HTU21D;37392;50.964;6.952;2023-07-28T03:18:19;17.19;9.27
51305;HTU21D;37392;50.964;6.952;2023-07-28T03:20:46;17.18;9.27
51305;HTU21D;37392;50.964;6.952;2023-07-28T03:23:12;17.16;9.15
51305;HTU21D;37392;50.964;6.952;2023-07-28T03:25:37;17.18;9.22
51305;HTU21D;37392;50.964;6.952;2023-07-28T03:28:03;17.18;9.25
51305;HTU21D;37392;50.964;6.952;2023-07-28T03:30:28;17.18;9.29
51305;HTU21D;37392;50.964;6.952;2023-07-28T03:32:54;17.16;9.32
51305;HTU21D;37392;50.964;6.952;2023-07-28T03:35:20;17.17;9.37
51305;HTU21D;37392;50.964;6.952;2023-07-28T03:37:45;17.21;9.43
51305;HTU21D;37392;50.964;6.952;2023-07-28T03:40:11;17.20;9.42
51305;HTU21D;37392;50.964;6.952;2023-07-28T03:42:37;17.20;9.49
51305;HTU21D;37392;50.964;6.952;2023-07-28T03:45:03;17.19;9.49
51305;HTU21D;37392;50.964;6.952;2023-07-28T03:47:29;17.19;9.53
51305;HTU21D;37392;50.964;6.952;2023-07-28T03:49:54;17.22;9.54
51305;HTU21D;37392;50.964;6.952;2023-07-28T03:52:20;17.23;9.56
51305;HTU21D;37392;50.964;6.952;2023-07-28T03:54:45;17.20;9.50
51305;HTU21D;37392;50.964;6.952;2023-07-28T03:57:11;17.20;9.51
51305;HTU21D;37392;50.964;6.952;2023-07-28T03:59:36;17.21;9.53
51305;HTU21D;37392;50.964;6.952;2023-07-28T04:02:02;17.21;9.63
51305;HTU21D;37392;50.964;6.952;2023-07-28T04:04:28;17.23;9.66
51305;HTU21D;37392;50.964;6.952;2023-07-28T04:06:53;17.22;9.65
51305;HTU21D;37392;50.964;6.952;2023-07-28T04:09:19;17.23;9.69
51305;HTU21D;37392;50.964;6.952;2023-07-28T04:11:45;17.26;9.68
51305;HTU21D;37392;50.964;6.952;2023-07-28T04:14:11;17.26;9.68
51305;HTU21D;37392;50.964;6.952;2023-07-28T04:16:37;17.30;9.73
51305;HTU21D;37392;50.964;6.952;2023-07-28T04:19:03;17.29;9.74
51305;HTU21D;37392;50.964;6.952;2023-07-28T04:21:29;17.30;9.74
51305;HTU21D;37392;50.964;6.952;2023-07-28T04:23:55;17.33;9.80
51305;HTU21D;37392;50.964;6.952;2023-07-28T04:26:24;17.32;9.89
51305;HTU21D;37392;50.964;6.952;2023-07-28T04:28:50;17.36;9.86
51305;HTU21D;37392;50.964;6.952;2023-07-28T04:31:16;17.35;9.85
51305;HTU21D;37392;50.964;6.952;2023-07-28T04:33:42;17.37;9.89
51305;HTU21D;37392;50.964;6.952;2023-07-28T04:36:08;17.38;9.89
51305;HTU21D;37392;50.964;6.952;2023-07-28T04:38:34;17.41;9.93
51305;HTU21D;37392;50.964;6.952;2023-07-28T04:40:59;17.44;9.93
51305;HTU21D;37392;50.964;6.952;2023-07-28T04:43:25;17.45;9.89
51305;HTU21D;37392;50.964;6.952;2023-07-28T04:45:51;17.46;9.90
51305;HTU21D;37392;50.964;6.952;2023-07-28T04:48:16;17.51;9.94
51305;HTU21D;37392;50.964;6.952;2023-07-28T04:50:42;17.55;9.94
51305;HTU21D;37392;50.964;6.952;2023-07-28T04:53:07;17.58;9.94
51305;HTU21D;37392;50.964;6.952;2023-07-28T04:55:33;17.60;9.93
51305;HTU21D;37392;50.964;6.952;2023-07-28T04:57:58;17.58;9.74
51305;HTU21D;37392;50.964;6.952;2023-07-28T05:00:24;17.64;9.82
51305;HTU21D;37392;50.964;6.952;2023-07-28T05:02:49;17.68;9.91
51305;HTU21D;37392;50.964;6.952;2023-07-28T05:05:15;17.68;9.86
51305;HTU21D;37392;50.964;6.952;2023-07-28T05:07:41;17.74;9.96
51305;HTU21D;37392;50.964;6.952;2023-07-28T05:10:07;17.79;10.05
51305;HTU21D;37392;50.964;6.952;2023-07-28T05:12:33;17.80;10.04
51305;HTU21D;37392;50.964;6.952;2023-07-28T05:14:59;17.82;10.08
51305;HTU21D;37392;50.964;6.952;2023-07-28T05:17:24;17.85;10.09
51305;HTU21D;37392;50.964;6.952;2023-07-28T05:19:50;17.92;10.21
51305;HTU21D;37392;50.964;6.952;2023-07-28T05:22:16;17.94;10.04
51305;HTU21D;37392;50.964;6.952;2023-07-28T05:24:42;17.92;10.02
51305;HTU21D;37392;50.964;6.952;2023-07-28T05:27:09;17.99;10.10
51305;HTU21D;37392;50.964;6.952;2023-07-28T05:29:35;17.98;10.11
51305;HTU21D;37392;50.964;6.952;2023-07-28T05:32:01;18.00;10.07
51305;HTU21D;37392;50.964;6.952;2023-07-28T05:34:27;18.03;10.06
51305;HTU21D;37392;50.964;6.952;2023-07-28T05:36:52;17.98;10.07
51305;HTU21D;37392;50.964;6.952;2023-07-28T05:39:18;17.99;10.08
51305;HTU21D;37392;50.964;6.952;2023-07-28T05:41:44;18.04;10.19
51305;HTU21D;37392;50.964;6.952;2023-07-28T05:44:09;18.08;10.14
51305;HTU21D;37392;50.964;6.952;2023-07-28T05:46:35;18.10;10.05
51305;HTU21D;37392;50.964;6.952;2023-07-28T05:49:00;18.12;10.02
51305;HTU21D;37392;50.964;6.952;2023-07-28T05:51:26;18.11;9.95
51305;HTU21D;37392;50.964;6.952;2023-07-28T05:53:52;18.12;10.08
51305;HTU21D;37392;50.964;6.952;2023-07-28T05:56:17;18.13;10.05
51305;HTU21D;37392;50.964;6.952;2023-07-28T05:58:46;18.15;10.24
51305;HTU21D;37392;50.964;6.952;2023-07-28T06:01:12;18.20;10.21
51305;HTU21D;37392;50.964;6.952;2023-07-28T06:03:38;18.22;10.30
51305;HTU21D;37392;50.964;6.952;2023-07-28T06:06:04;18.24;10.14
51305;HTU21D;37392;50.964;6.952;2023-07-28T06:08:29;18.24;9.96
51305;HTU21D;37392;50.964;6.952;2023-07-28T06:10:55;18.28;10.14
51305;HTU21D;37392;50.964;6.952;2023-07-28T06:13:20;18.37;10.30
51305;HTU21D;37392;50.964;6.952;2023-07-28T06:15:47;18.39;10.25
51305;HTU21D;37392;50.964;6.952;2023-07-28T06:18:13;18.41;10.23
51305;HTU21D;37392;50.964;6.952;2023-07-28T06:20:42;18.48;10.32
51305;HTU21D;37392;50.964;6.952;2023-07-28T06:23:08;18.44;10.07
51305;HTU21D;37392;50.964;6.952;2023-07-28T06:25:34;18.51;10.26
51305;HTU21D;37392;50.964;6.952;2023-07-28T06:28:00;18.56;10.34
51305;HTU21D;37392;50.964;6.952;2023-07-28T06:30:25;18.62;10.24
51305;HTU21D;37392;50.964;6.952;2023-07-28T06:32:51;18.72;10.30
51305;HTU21D;37392;50.964;6.952;2023-07-28T06:35:16;18.72;10.21
51305;HTU21D;37392;50.964;6.952;2023-07-28T06:37:42;18.81;10.20
51305;HTU21D;37392;50.964;6.952;2023-07-28T06:40:08;18.77;10.00
51305;HTU21D;37392;50.964;6.952;2023-07-28T06:42:35;18.71;9.88
51305;HTU21D;37392;50.964;6.952;2023-07-28T06:45:02;18.74;9.89
51305;HTU21D;37392;50.964;6.952;2023-07-28T06:47:28;18.74;9.68
51305;HTU21D;37392;50.964;6.952;2023-07-28T06:49:54;18.77;9.93
51305;HTU21D;37392;50.964;6.952;2023-07-28T06:52:19;18.81;9.95
51305;HTU21D;37392;50.964;6.952;2023-07-28T06:54:45;18.81;9.92
51305;HTU21D;37392;50.964;6.952;2023-07-28T06:57:12;18.81;9.94
51305;HTU21D;37392;50.964;6.952;2023-07-28T06:59:38;18.83;10.03
51305;HTU21D;37392;50.964;6.952;2023-07-28T07:02:03;18.82;9.80
51305;HTU21D;37392;50.964;6.952;2023-07-28T07:04:30;18.85;9.85
51305;HTU21D;37392;50.964;6.952;2023-07-28T07:06:56;18.87;9.56
51305;HTU21D;37392;50.964;6.952;2023-07-28T07:09:21;18.96;9.78
51305;HTU21D;37392;50.964;6.952;2023-07-28T07:11:47;19.03;9.49
51305;HTU21D;37392;50.964;6.952;2023-07-28T07:14:12;19.11;9.30
51305;HTU21D;37392;50.964;6.952;2023-07-28T07:16:39;19.15;8.82
51305;HTU21D;37392;50.964;6.952;2023-07-28T07:19:05;19.21;8.79
51305;HTU21D;37392;50.964;6.952;2023-07-28T07:21:31;19.27;8.28
51305;HTU21D;37392;50.964;6.952;2023-07-28T07:23:56;19.30;8.09
51305;HTU21D;37392;50.964;6.952;2023-07-28T07:26:22;19.28;7.07
51305;HTU21D;37392;50.964;6.952;2023-07-28T07:28:48;19.35;7.44
51305;HTU21D;37392;50.964;6.952;2023-07-28T07:31:14;19.42;7.41
51305;HTU21D;37392;50.964;6.952;2023-07-28T07:33:40;19.44;7.04
51305;HTU21D;37392;50.964;6.952;2023-07-28T07:36:14;19.54;7.12
51305;HTU21D;37392;50.964;6.952;2023-07-28T07:38:41;19.62;6.92
51305;HTU21D;37392;50.964;6.952;2023-07-28T07:41:07;19.63;6.18
51305;HTU21D;37392;50.964;6.952;2023-07-28T07:43:34;19.70;6.23
51305;HTU21D;37392;50.964;6.952;2023-07-28T07:45:59;19.71;6.03
51305;HTU21D;37392;50.964;6.952;2023-07-28T07:48:25;19.73;5.43
51305;HTU21D;37392;50.964;6.952;2023-07-28T07:50:51;19.82;5.54
51305;HTU21D;37392;50.964;6.952;2023-07-28T07:53:17;19.87;5.42
51305;HTU21D;37392;50.964;6.952;2023-07-28T07:55:42;19.88;4.63
51305;HTU21D;37392;50.964;6.952;2023-07-28T07:58:08;19.87;4.05
51305;HTU21D;37392;50.964;6.952;2023-07-28T08:00:34;19.94;4.09
51305;HTU21D;37392;50.964;6.952;2023-07-28T08:03:01;19.92;3.50
51305;HTU21D;37392;50.964;6.952;2023-07-28T08:05:26;19.97;3.97
51305;HTU21D;37392;50.964;6.952;2023-07-28T08:07:53;20.19;4.54
51305;HTU21D;37392;50.964;6.952;2023-07-28T08:10:20;20.35;3.75
51305;HTU21D;37392;50.964;6.952;2023-07-28T08:12:45;20.44;1.67
51305;HTU21D;37392;50.964;6.952;2023-07-28T08:15:12;20.78;2.67
51305;HTU21D;37392;50.964;6.952;2023-07-28T08:17:38;21.01;-0.17
51305;HTU21D;37392;50.964;6.952;2023-07-28T08:20:06;21.27;-1.58
51305;HTU21D;37392;50.964;6.952;2023-07-28T08:22:32;21.60;-0.86
51305;HTU21D;37392;50.964;6.952;2023-07-28T08:24:57;21.69;-5.38
51305;HTU21D;37392;50.964;6.952;2023-07-28T08:27:23;21.99;-3.96
51305;HTU21D;37392;50.964;6.952;2023-07-28T08:29:49;22.08;118.36
51305;HTU21D;37392;50.964;6.952;2023-07-28T08:32:15;22.32;117.87
51305;HTU21D;37392;50.964;6.952;2023-07-28T08:34:40;22.34;116.14
51305;HTU21D;37392;50.964;6.952;2023-07-28T08:37:06;22.39;114.85
51305;HTU21D;37392;50.964;6.952;2023-07-28T08:39:32;22.50;114.08
51305;HTU21D;37392;50.964;6.952;2023-07-28T08:42:02;22.88;111.97
51305;HTU21D;37392;50.964;6.952;2023-07-28T08:44:32;23.37;111.57
51305;HTU21D;37392;50.964;6.952;2023-07-28T08:47:03;23.70;110.66
51305;HTU21D;37392;50.964;6.952;2023-07-28T08:49:31;24.03;106.31
51305;HTU21D;37392;50.964;6.952;2023-07-28T08:52:00;24.36;105.14
51305;HTU21D;37392;50.964;6.952;2023-07-28T08:54:26;24.80;103.65
51305;HTU21D;37392;50.964;6.952;2023-07-28T08:56:52;25.31;104.14
51305;HTU21D;37392;50.964;6.952;2023-07-28T08:59:26;26.16;101.04
51305;HTU21D;37392;50.964;6.952;2023-07-28T09:01:53;27.50;95.22
51305;HTU21D;37392;50.964;6.952;2023-07-28T09:04:21;29.18;90.29
51305;HTU21D;37392;50.964;6.952;2023-07-28T09:06:48;29.73;83.99
51305;HTU21D;37392;50.964;6.952;2023-07-28T09:09:15;29.67;85.14
51305;HTU21D;37392;50.964;6.952;2023-07-28T09:11:45;30.12;83.01
51305;HTU21D;37392;50.964;6.952;2023-07-28T09:14:12;30.21;80.59
51305;HTU21D;37392;50.964;6.952;2023-07-28T09:16:39;29.85;80.98
51305;HTU21D;37392;50.964;6.952;2023-07-28T09:19:05;29.76;81.56
51305;HTU21D;37392;50.964;6.952;2023-07-28T09:21:32;29.95;79.70
51305;HTU21D;37392;50.964;6.952;2023-07-28T09:24:04;30.48;78.99
51305;HTU21D;37392;50.964;6.952;2023-07-28T09:26:41;30.57;76.70
51305;HTU21D;37392;50.964;6.952;2023-07-28T09:29:14;30.68;78.25
51305;HTU21D;37392;50.964;6.952;2023-07-28T09:31:48;30.52;78.96
51305;HTU21D;37392;50.964;6.952;2023-07-28T09:34:25;30.02;78.27
51305;HTU21D;37392;50.964;6.952;2023-07-28T09:36:53;29.71;79.02
51305;HTU21D;37392;50.964;6.952;2023-07-28T09:39:19;29.27;81.46
51305;HTU21D;37392;50.964;6.952;2023-07-28T09:41:46;28.95;80.24
51305;HTU21D;37392;50.964;6.952;2023-07-28T09:44:13;28.82;81.29
51305;HTU21D;37392;50.964;6.952;2023-07-28T09:46:50;28.23;80.69
51305;HTU21D;37392;50.964;6.952;2023-07-28T09:49:23;28.19;82.46
51305;HTU21D;37392;50.964;6.952;2023-07-28T09:51:54;27.85;80.79
51305;HTU21D;37392;50.964;6.952;2023-07-28T09:54:25;27.66;81.13
51305;HTU21D;37392;50.964;6.952;2023-07-28T09:56:58;27.31;81.59
51305;HTU21D;37392;50.964;6.952;2023-07-28T09:59:38;27.20;82.44
51305;HTU21D;37392;50.964;6.952;2023-07-28T10:02:05;27.15;81.82
51305;HTU21D;37392;50.964;6.952;2023-07-28T10:04:32;27.64;82.72
51305;HTU21D;37392;50.964;6.952;2023-07-28T10:06:58;28.02;79.05
51305;HTU21D;37392;50.964;6.952;2023-07-28T10:09:26;28.78;79.97
51305;HTU21D;37392;50.964;6.952;2023-07-28T10:11:53;29.17;74.02
51305;HTU21D;37392;50.964;6.952;2023-07-28T10:14:37;29.36;72.08
51305;HTU21D;37392;50.964;6.952;2023-07-28T10:17:06;29.43;71.64
51305;HTU21D;37392;50.964;6.952;2023-07-28T10:19:35;29.13;71.93
51305;HTU21D;37392;50.964;6.952;2023-07-28T10:22:04;29.03;72.54
51305;HTU21D;37392;50.964;6.952;2023-07-28T10:27:45;28.26;73.97
51305;HTU21D;37392;50.964;6.952;2023-07-28T10:30:14;27.72;75.92
51305;HTU21D;37392;50.964;6.952;2023-07-28T10:32:43;27.59;76.29
51305;HTU21D;37392;50.964;6.952;2023-07-28T10:35:30;27.40;76.22
51305;HTU21D;37392;50.964;6.952;2023-07-28T10:37:57;27.64;77.18
51305;HTU21D;37392;50.964;6.952;2023-07-28T10:40:33;27.97;75.41
51305;HTU21D;37392;50.964;6.952;2023-07-28T10:43:00;28.31;74.50
51305;HTU21D;37392;50.964;6.952;2023-07-28T10:45:32;28.69;73.76
51305;HTU21D;37392;50.964;6.952;2023-07-28T10:47:59;28.79;72.22
51305;HTU21D;37392;50.964;6.952;2023-07-28T10:50:32;28.79;71.74
51305;HTU21D;37392;50.964;6.952;2023-07-28T10:52:57;28.59;72.36
51305;HTU21D;37392;50.964;6.952;2023-07-28T10:55:25;28.60;72.81
51305;HTU21D;37392;50.964;6.952;2023-07-28T10:57:53;28.65;71.71
51305;HTU21D;37392;50.964;6.952;2023-07-28T11:00:21;28.82;71.58
51305;HTU21D;37392;50.964;6.952;2023-07-28T11:02:49;29.36;70.29
51305;HTU21D;37392;50.964;6.952;2023-07-28T11:05:24;29.72;69.26
51305;HTU21D;37392;50.964;6.952;2023-07-28T11:08:02;29.85;68.02
51305;HTU21D;37392;50.964;6.952;2023-07-28T11:10:29;29.73;68.26
51305;HTU21D;37392;50.964;6.952;2023-07-28T11:12:58;29.72;68.80
51305;HTU21D;37392;50.964;6.952;2023-07-28T11:15:25;29.53;67.91
51305;HTU21D;37392;50.964;6.952;2023-07-28T11:17:51;29.20;69.52
51305;HTU21D;37392;50.964;6.952;2023-07-28T11:20:27;29.14;69.47
51305;HTU21D;37392;50.964;6.952;2023-07-28T11:23:03;29.28;69.36
51305;HTU21D;37392;50.964;6.952;2023-07-28T11:25:32;29.79;68.52
51305;HTU21D;37392;50.964;6.952;2023-07-28T11:28:03;30.18;67.37
51305;HTU21D;37392;50.964;6.952;2023-07-28T11:30:32;30.53;66.66
51305;HTU21D;37392;50.964;6.952;2023-07-28T11:33:03;30.64;65.59
51305;HTU21D;37392;50.964;6.952;2023-07-28T11:35:28;30.62;64.58
51305;HTU21D;37392;50.964;6.952;2023-07-28T11:37:54;30.59;65.41
51305;HTU21D;37392;50.964;6.952;2023-07-28T11:40:21;30.28;65.48
51305;HTU21D;37392;50.964;6.952;2023-07-28T11:42:49;30.23;66.36
51305;HTU21D;37392;50.964;6.952;2023-07-28T11:45:18;30.15;66.27
51305;HTU21D;37392;50.964;6.952;2023-07-28T11:48:04;29.94;66.53
51305;HTU21D;37392;50.964;6.952;2023-07-28T11:50:37;29.90;65.96
51305;HTU21D;37392;50.964;6.952;2023-07-28T11:53:04;29.54;65.97
51305;HTU21D;37392;50.964;6.952;2023-07-28T11:55:31;29.60;65.88
51305;HTU21D;37392;50.964;6.952;2023-07-28T11:57:58;29.63;65.50
51305;HTU21D;37392;50.964;6.952;2023-07-28T12:00:34;29.53;66.13
51305;HTU21D;37392;50.964;6.952;2023-07-28T12:03:02;29.68;64.85
51305;HTU21D;37392;50.964;6.952;2023-07-28T12:05:29;29.68;64.75
51305;HTU21D;37392;50.964;6.952;2023-07-28T12:07:55;29.85;64.21
51305;HTU21D;37392;50.964;6.952;2023-07-28T12:10:20;30.11;64.20
51305;HTU21D;37392;50.964;6.952;2023-07-28T12:12:47;30.23;63.42
51305;HTU21D;37392;50.964;6.952;2023-07-28T12:18:15;30.44;62.95
51305;HTU21D;37392;50.964;6.952;2023-07-28T12:20:43;30.76;61.86
51305;HTU21D;37392;50.964;6.952;2023-07-28T12:23:12;30.84;61.57
51305;HTU21D;37392;50.964;6.952;2023-07-28T12:25:42;30.72;61.02
51305;HTU21D;37392;50.964;6.952;2023-07-28T12:28:08;30.45;62.21
51305;HTU21D;37392;50.964;6.952;2023-07-28T12:30:34;30.21;63.18
51305;HTU21D;37392;50.964;6.952;2023-07-28T12:33:00;30.06;63.82
51305;HTU21D;37392;50.964;6.952;2023-07-28T12:35:27;29.98;64.89
51305;HTU21D;37392;50.964;6.952;2023-07-28T12:37:59;29.91;64.53
51305;HTU21D;37392;50.964;6.952;2023-07-28T12:40:33;29.79;64.36
51305;HTU21D;37392;50.964;6.952;2023-07-28T12:43:00;29.45;64.99
51305;HTU21D;37392;50.964;6.952;2023-07-28T12:45:27;29.21;65.40
51305;HTU21D;37392;50.964;6.952;2023-07-28T12:47:53;29.09;66.65
51305;HTU21D;37392;50.964;6.952;2023-07-28T12:50:22;29.01;66.14
51305;HTU21D;37392;50.964;6.952;2023-07-28T12:52:51;29.17;66.27
51305;HTU21D;37392;50.964;6.952;2023-07-28T12:55:18;29.23;66.17
51305;HTU21D;37392;50.964;6.952;2023-07-28T12:57:44;29.26;65.47
51305;HTU21D;37392;50.964;6.952;2023-07-28T13:00:11;28.95;66.25
51305;HTU21D;37392;50.964;6.952;2023-07-28T13:02:42;28.91;66.85
51305;HTU21D;37392;50.964;6.952;2023-07-28T13:05:10;28.97;66.71
51305;HTU21D;37392;50.964;6.952;2023-07-28T13:07:39;28.68;66.91
51305;HTU21D;37392;50.964;6.952;2023-07-28T13:10:09;28.47;67.39
51305;HTU21D;37392;50.964;6.952;2023-07-28T13:12:36;28.20;68.49
51305;HTU21D;37392;50.964;6.952;2023-07-28T13:15:02;27.80;69.29
51305;HTU21D;37392;50.964;6.952;2023-07-28T13:17:28;27.56;70.47
51305;HTU21D;37392;50.964;6.952;2023-07-28T13:19:54;27.37;71.11
51305;HTU21D;37392;50.964;6.952;2023-07-28T13:22:22;27.19;71.86
51305;HTU21D;37392;50.964;6.952;2023-07-28T13:24:48;27.25;71.93
51305;HTU21D;37392;50.964;6.952;2023-07-28T13:27:13;27.56;71.23
51305;HTU21D;37392;50.964;6.952;2023-07-28T13:29:39;28.03;70.03
51305;HTU21D;37392;50.964;6.952;2023-07-28T13:32:15;28.44;68.91
51305;HTU21D;37392;50.964;6.952;2023-07-28T13:34:45;28.73;67.61
51305;HTU21D;37392;50.964;6.952;2023-07-28T13:37:10;28.82;66.96
51305;HTU21D;37392;50.964;6.952;2023-07-28T13:39:36;28.80;67.46
51305;HTU21D;37392;50.964;6.952;2023-07-28T13:42:01;29.02;67.06
51305;HTU21D;37392;50.964;6.952;2023-07-28T13:44:30;29.18;66.40
51305;HTU21D;37392;50.964;6.952;2023-07-28T13:46:55;29.48;65.91
51305;HTU21D;37392;50.964;6.952;2023-07-28T13:49:21;29.66;65.14
51305;HTU21D;37392;50.964;6.952;2023-07-28T13:51:46;29.52;64.79
51305;HTU21D;37392;50.964;6.952;2023-07-28T13:54:12;29.66;64.88
51305;HTU21D;37392;50.964;6.952;2023-07-28T13:56:37;30.08;63.92
51305;HTU21D;37392;50.964;6.952;2023-07-28T13:59:03;30.32;62.75
51305;HTU21D;37392;50.964;6.952;2023-07-28T14:01:30;30.26;62.95
51305;HTU21D;37392;50.964;6.952;2023-07-28T14:03:55;30.03;63.15
51305;HTU21D;37392;50.964;6.952;2023-07-28T14:06:21;29.80;63.79
51305;HTU21D;37392;50.964;6.952;2023-07-28T14:08:47;29.34;64.79
51305;HTU21D;37392;50.964;6.952;2023-07-28T14:11:12;29.15;65.78
51305;HTU21D;37392;50.964;6.952;2023-07-28T14:13:38;28.99;66.57
51305;HTU21D;37392;50.964;6.952;2023-07-28T14:16:04;28.90;67.14
51305;HTU21D;37392;50.964;6.952;2023-07-28T14:18:30;29.03;66.95
51305;HTU21D;37392;50.964;6.952;2023-07-28T14:20:56;29.00;67.06
51305;HTU21D;37392;50.964;6.952;2023-07-28T14:23:23;29.09;66.78
51305;HTU21D;37392;50.964;6.952;2023-07-28T14:25:50;28.99;67.27
51305;HTU21D;37392;50.964;6.952;2023-07-28T14:28:15;29.09;67.30
51305;HTU21D;37392;50.964;6.952;2023-07-28T14:30:41;29.13;67.11
51305;HTU21D;37392;50.964;6.952;2023-07-28T14:33:14;29.15;66.68
51305;HTU21D;37392;50.964;6.952;2023-07-28T14:35:40;29.06;66.45
51305;HTU21D;37392;50.964;6.952;2023-07-28T14:38:07;28.98;66.04
51305;HTU21D;37392;50.964;6.952;2023-07-28T14:40:32;28.94;66.12
51305;HTU21D;37392;50.964;6.952;2023-07-28T14:42:58;28.85;66.04
51305;HTU21D;37392;50.964;6.952;2023-07-28T14:45:24;29.00;66.01
51305;HTU21D;37392;50.964;6.952;2023-07-28T14:47:49;29.04;66.11
51305;HTU21D;37392;50.964;6.952;2023-07-28T14:50:15;29.09;65.75
51305;HTU21D;37392;50.964;6.952;2023-07-28T14:52:40;28.97;65.68
51305;HTU21D;37392;50.964;6.952;2023-07-28T14:55:06;28.71;66.31
51305;HTU21D;37392;50.964;6.952;2023-07-28T14:57:32;28.60;66.95
51305;HTU21D;37392;50.964;6.952;2023-07-28T14:59:58;28.60;67.28
51305;HTU21D;37392;50.964;6.952;2023-07-28T15:02:23;28.58;67.43
51305;HTU21D;37392;50.964;6.952;2023-07-28T15:04:49;28.67;67.04
51305;HTU21D;37392;50.964;6.952;2023-07-28T15:07:15;28.65;67.18
51305;HTU21D;37392;50.964;6.952;2023-07-28T15:09:40;28.65;67.62
51305;HTU21D;37392;50.964;6.952;2023-07-28T15:12:07;28.61;67.86
51305;HTU21D;37392;50.964;6.952;2023-07-28T15:14:32;28.64;67.83
51305;HTU21D;37392;50.964;6.952;2023-07-28T15:16:58;28.68;67.56
51305;HTU21D;37392;50.964;6.952;2023-07-28T15:19:24;28.50;68.23
51305;HTU21D;37392;50.964;6.952;2023-07-28T15:21:49;28.08;70.13
51305;HTU21D;37392;50.964;6.952;2023-07-28T15:24:15;27.78;71.58
51305;HTU21D;37392;50.964;6.952;2023-07-28T15:26:40;27.53;72.84
51305;HTU21D;37392;50.964;6.952;2023-07-28T15:29:11;27.19;74.73